Hlavní strana
METAR-TAF:

METAR-TAF

Letiště :

North Myrtle Beach, Jižní Karolína, Spojené státy americké

zeměpisná šířka: 33-48-42N, zeměpisná délka: 078-43-26W, výška: 10 m

Aktuální stav počasí

Zpráva byla vytvořena před 24 minutami, v 17:53 UTC
vítr z různých směrů 6 kt s nárazy do 24 kt
Teplota 12°C
Vlhkost vzduchu 38%
Tlak 1016 hPa
Viditelnost: 16.1 km
Jasno

METAR: KCRE 271753Z VRB06G24KT 10SM CLR 12/M02 A3000 RMK AO1 SLP161 T01171022 10117 20072 58001

Čas: 13:17 (18:17 UTC)

Předpověď počasí

Zpráva byla vytvořena před 54 minutami, v 17:23 UTC
Předpověď platná od 27 v 18 UTC do 28 v 18 UTC
Západoseverozápadní vítr 13 kt s nárazy do 19 kt
Viditelnost: 10 km
Jasno
Od 28 v 0000 UTC
Západní vítr 6 kt
Viditelnost: 10 km
Jasno
Od 28 v 1700 UTC
Západojihozápadní vítr 9 kt
Viditelnost: 10 km
Skoro jasno ve výšce 15000 ft

TAF: KCRE 271723Z 2718/2818 30013G19KT P6SM SKC FM280000 27006KT P6SM SKC FM281700 24009KT P6SM FEW150

Stav a předpovědi počasí z více než 4 000 letišť (zprávy METAR a TAF).

Červené a žluté tečky na mapě představují dostupné meteorologické stanice.

Když kurzor umístíte na tečku, zobrazí se název stanice.

Pak kliknutím zobrazíte stav a předpověď počasí.

Chcete-li změnit mapu, kliknutím na zelené tlačítko se znaménkem +mapu přiblížíte, kliknutím na zelené tlačítko se znaménkem – mapu oddálíte a kliknutím na zelené šipky přejdete na sousední mapy.


METAR-TAF: